sensor_id;sensor_type;location;lat;lon;timestamp;P1;durP1;ratioP1;P2;durP2;ratioP2
39970;SDS011;35425;51.142;17.178;2022-12-24T00:00:35;6.80;;;6.10;;
39970;SDS011;35425;51.142;17.178;2022-12-24T00:03:02;7.32;;;6.32;;
39970;SDS011;35425;51.142;17.178;2022-12-24T00:05:29;7.10;;;6.28;;
39970;SDS011;35425;51.142;17.178;2022-12-24T00:07:55;6.75;;;6.05;;
39970;SDS011;35425;51.142;17.178;2022-12-24T00:10:21;6.97;;;6.28;;
39970;SDS011;35425;51.142;17.178;2022-12-24T00:12:48;6.78;;;6.03;;
39970;SDS011;35425;51.142;17.178;2022-12-24T00:15:14;6.70;;;6.05;;
39970;SDS011;35425;51.142;17.178;2022-12-24T00:17:41;6.35;;;5.68;;
39970;SDS011;35425;51.142;17.178;2022-12-24T00:20:08;7.05;;;6.15;;
39970;SDS011;35425;51.142;17.178;2022-12-24T00:22:34;6.47;;;5.88;;
39970;SDS011;35425;51.142;17.178;2022-12-24T00:25:01;5.82;;;5.32;;
39970;SDS011;35425;51.142;17.178;2022-12-24T00:27:27;6.20;;;5.60;;
39970;SDS011;35425;51.142;17.178;2022-12-24T00:29:54;6.13;;;5.43;;
39970;SDS011;35425;51.142;17.178;2022-12-24T00:32:20;5.75;;;5.20;;
39970;SDS011;35425;51.142;17.178;2022-12-24T00:34:46;6.05;;;5.45;;
39970;SDS011;35425;51.142;17.178;2022-12-24T00:37:13;6.53;;;5.65;;
39970;SDS011;35425;51.142;17.178;2022-12-24T00:39:39;5.72;;;5.00;;
39970;SDS011;35425;51.142;17.178;2022-12-24T00:42:06;7.03;;;5.80;;
39970;SDS011;35425;51.142;17.178;2022-12-24T00:44:32;5.68;;;5.05;;
39970;SDS011;35425;51.142;17.178;2022-12-24T00:46:59;5.07;;;4.57;;
39970;SDS011;35425;51.142;17.178;2022-12-24T00:49:25;5.30;;;4.80;;
39970;SDS011;35425;51.142;17.178;2022-12-24T00:51:52;5.55;;;5.00;;
39970;SDS011;35425;51.142;17.178;2022-12-24T00:54:18;5.32;;;4.82;;
39970;SDS011;35425;51.142;17.178;2022-12-24T00:56:45;5.85;;;5.10;;
39970;SDS011;35425;51.142;17.178;2022-12-24T00:59:11;5.43;;;4.68;;
39970;SDS011;35425;51.142;17.178;2022-12-24T01:01:37;5.00;;;4.50;;
39970;SDS011;35425;51.142;17.178;2022-12-24T01:04:04;5.05;;;4.60;;
39970;SDS011;35425;51.142;17.178;2022-12-24T01:06:49;5.55;;;4.97;;
39970;SDS011;35425;51.142;17.178;2022-12-24T01:09:16;5.05;;;4.25;;
39970;SDS011;35425;51.142;17.178;2022-12-24T01:11:42;5.43;;;4.38;;
39970;SDS011;35425;51.142;17.178;2022-12-24T01:14:09;4.97;;;4.25;;
39970;SDS011;35425;51.142;17.178;2022-12-24T01:16:35;5.40;;;4.88;;
39970;SDS011;35425;51.142;17.178;2022-12-24T01:19:02;5.18;;;4.60;;
39970;SDS011;35425;51.142;17.178;2022-12-24T01:21:28;5.07;;;4.38;;
39970;SDS011;35425;51.142;17.178;2022-12-24T01:23:55;4.80;;;4.30;;
39970;SDS011;35425;51.142;17.178;2022-12-24T01:26:21;5.82;;;4.40;;
39970;SDS011;35425;51.142;17.178;2022-12-24T01:28:48;4.80;;;4.30;;
39970;SDS011;35425;51.142;17.178;2022-12-24T01:31:15;5.03;;;4.53;;
39970;SDS011;35425;51.142;17.178;2022-12-24T01:33:42;4.20;;;3.80;;
39970;SDS011;35425;51.142;17.178;2022-12-24T01:36:10;4.93;;;4.15;;
39970;SDS011;35425;51.142;17.178;2022-12-24T01:38:37;4.47;;;3.90;;
39970;SDS011;35425;51.142;17.178;2022-12-24T01:41:03;4.32;;;3.90;;
39970;SDS011;35425;51.142;17.178;2022-12-24T01:43:48;5.13;;;4.30;;
39970;SDS011;35425;51.142;17.178;2022-12-24T01:46:15;4.82;;;4.32;;
39970;SDS011;35425;51.142;17.178;2022-12-24T01:48:44;4.10;;;3.70;;
39970;SDS011;35425;51.142;17.178;2022-12-24T01:53:38;4.53;;;4.03;;
39970;SDS011;35425;51.142;17.178;2022-12-24T01:56:06;4.43;;;3.83;;
39970;SDS011;35425;51.142;17.178;2022-12-24T01:58:34;4.60;;;4.10;;
39970;SDS011;35425;51.142;17.178;2022-12-24T02:01:00;4.63;;;3.88;;
39970;SDS011;35425;51.142;17.178;2022-12-24T02:03:27;4.53;;;4.05;;
39970;SDS011;35425;51.142;17.178;2022-12-24T02:05:54;4.53;;;3.75;;
39970;SDS011;35425;51.142;17.178;2022-12-24T02:08:22;4.40;;;3.65;;
39970;SDS011;35425;51.142;17.178;2022-12-24T02:10:49;4.20;;;3.80;;
39970;SDS011;35425;51.142;17.178;2022-12-24T02:13:16;3.92;;;3.40;;
39970;SDS011;35425;51.142;17.178;2022-12-24T02:26:16;4.13;;;3.47;;
39970;SDS011;35425;51.142;17.178;2022-12-24T02:31:22;3.55;;;3.25;;
39970;SDS011;35425;51.142;17.178;2022-12-24T02:33:58;3.60;;;3.10;;
39970;SDS011;35425;51.142;17.178;2022-12-24T02:36:32;3.80;;;3.50;;
39970;SDS011;35425;51.142;17.178;2022-12-24T02:39:02;3.70;;;3.20;;
39970;SDS011;35425;51.142;17.178;2022-12-24T02:41:30;3.45;;;3.10;;
39970;SDS011;35425;51.142;17.178;2022-12-24T02:44:18;3.33;;;3.03;;
39970;SDS011;35425;51.142;17.178;2022-12-24T02:46:45;3.50;;;3.15;;
39970;SDS011;35425;51.142;17.178;2022-12-24T02:49:12;3.85;;;3.15;;
39970;SDS011;35425;51.142;17.178;2022-12-24T02:51:38;4.07;;;3.42;;
39970;SDS011;35425;51.142;17.178;2022-12-24T02:54:05;3.53;;;3.00;;
39970;SDS011;35425;51.142;17.178;2022-12-24T02:56:44;3.50;;;3.20;;
39970;SDS011;35425;51.142;17.178;2022-12-24T03:06:50;3.60;;;3.17;;
39970;SDS011;35425;51.142;17.178;2022-12-24T03:11:57;3.58;;;3.13;;
39970;SDS011;35425;51.142;17.178;2022-12-24T03:14:25;3.35;;;3.00;;
39970;SDS011;35425;51.142;17.178;2022-12-24T03:16:53;3.63;;;3.10;;
39970;SDS011;35425;51.142;17.178;2022-12-24T03:19:20;3.22;;;2.88;;
39970;SDS011;35425;51.142;17.178;2022-12-24T03:21:47;3.30;;;3.00;;
39970;SDS011;35425;51.142;17.178;2022-12-24T03:24:14;2.92;;;2.63;;
39970;SDS011;35425;51.142;17.178;2022-12-24T03:26:41;3.20;;;2.90;;
39970;SDS011;35425;51.142;17.178;2022-12-24T03:29:07;2.85;;;2.53;;
39970;SDS011;35425;51.142;17.178;2022-12-24T03:31:44;2.88;;;2.58;;
39970;SDS011;35425;51.142;17.178;2022-12-24T03:34:11;3.00;;;2.70;;
39970;SDS011;35425;51.142;17.178;2022-12-24T03:36:38;3.00;;;2.70;;
39970;SDS011;35425;51.142;17.178;2022-12-24T03:39:05;3.42;;;2.83;;
39970;SDS011;35425;51.142;17.178;2022-12-24T03:41:31;3.88;;;2.90;;
39970;SDS011;35425;51.142;17.178;2022-12-24T03:43:58;3.47;;;2.95;;
39970;SDS011;35425;51.142;17.178;2022-12-24T03:46:25;2.97;;;2.55;;
39970;SDS011;35425;51.142;17.178;2022-12-24T03:48:51;2.58;;;2.38;;
39970;SDS011;35425;51.142;17.178;2022-12-24T03:51:19;3.13;;;2.60;;
39970;SDS011;35425;51.142;17.178;2022-12-24T03:53:45;3.03;;;2.53;;
39970;SDS011;35425;51.142;17.178;2022-12-24T03:56:12;2.60;;;2.20;;
39970;SDS011;35425;51.142;17.178;2022-12-24T03:58:39;2.60;;;2.40;;
39970;SDS011;35425;51.142;17.178;2022-12-24T04:01:05;2.80;;;2.53;;
39970;SDS011;35425;51.142;17.178;2022-12-24T04:03:33;2.40;;;2.03;;
39970;SDS011;35425;51.142;17.178;2022-12-24T04:06:04;2.58;;;2.15;;
39970;SDS011;35425;51.142;17.178;2022-12-24T04:08:31;3.13;;;2.20;;
39970;SDS011;35425;51.142;17.178;2022-12-24T04:10:58;2.22;;;2.03;;
39970;SDS011;35425;51.142;17.178;2022-12-24T04:13:31;2.88;;;2.40;;
39970;SDS011;35425;51.142;17.178;2022-12-24T04:15:58;1.75;;;1.63;;
39970;SDS011;35425;51.142;17.178;2022-12-24T04:18:25;2.15;;;1.95;;
39970;SDS011;35425;51.142;17.178;2022-12-24T04:20:52;2.35;;;2.15;;
39970;SDS011;35425;51.142;17.178;2022-12-24T04:23:18;2.00;;;1.80;;
39970;SDS011;35425;51.142;17.178;2022-12-24T04:25:45;2.35;;;2.10;;
39970;SDS011;35425;51.142;17.178;2022-12-24T04:28:12;2.45;;;2.00;;
39970;SDS011;35425;51.142;17.178;2022-12-24T04:30:38;2.22;;;2.03;;
39970;SDS011;35425;51.142;17.178;2022-12-24T04:33:05;2.00;;;1.80;;
39970;SDS011;35425;51.142;17.178;2022-12-24T04:35:31;1.88;;;1.70;;
39970;SDS011;35425;51.142;17.178;2022-12-24T04:37:58;2.22;;;1.88;;
39970;SDS011;35425;51.142;17.178;2022-12-24T04:40:24;2.25;;;1.85;;
39970;SDS011;35425;51.142;17.178;2022-12-24T04:42:51;2.15;;;1.90;;
39970;SDS011;35425;51.142;17.178;2022-12-24T04:45:17;2.25;;;1.98;;
39970;SDS011;35425;51.142;17.178;2022-12-24T04:47:44;2.05;;;1.55;;
39970;SDS011;35425;51.142;17.178;2022-12-24T04:50:10;1.73;;;1.55;;
39970;SDS011;35425;51.142;17.178;2022-12-24T04:52:37;2.20;;;1.80;;
39970;SDS011;35425;51.142;17.178;2022-12-24T04:55:03;2.55;;;1.80;;
39970;SDS011;35425;51.142;17.178;2022-12-24T04:57:30;2.85;;;1.70;;
39970;SDS011;35425;51.142;17.178;2022-12-24T04:59:57;2.05;;;1.52;;
39970;SDS011;35425;51.142;17.178;2022-12-24T05:02:24;2.17;;;1.92;;
39970;SDS011;35425;51.142;17.178;2022-12-24T05:04:51;1.67;;;1.58;;
39970;SDS011;35425;51.142;17.178;2022-12-24T05:07:17;1.70;;;1.42;;
39970;SDS011;35425;51.142;17.178;2022-12-24T05:09:44;1.90;;;1.63;;
39970;SDS011;35425;51.142;17.178;2022-12-24T05:12:10;1.88;;;1.45;;
39970;SDS011;35425;51.142;17.178;2022-12-24T05:14:37;1.88;;;1.40;;
39970;SDS011;35425;51.142;17.178;2022-12-24T05:17:04;1.92;;;1.52;;
39970;SDS011;35425;51.142;17.178;2022-12-24T05:19:31;1.70;;;1.40;;
39970;SDS011;35425;51.142;17.178;2022-12-24T05:21:57;1.30;;;1.20;;
39970;SDS011;35425;51.142;17.178;2022-12-24T05:24:42;1.30;;;1.10;;
39970;SDS011;35425;51.142;17.178;2022-12-24T05:27:27;1.63;;;1.45;;
39970;SDS011;35425;51.142;17.178;2022-12-24T05:29:54;1.60;;;1.30;;
39970;SDS011;35425;51.142;17.178;2022-12-24T05:32:20;1.40;;;1.27;;
39970;SDS011;35425;51.142;17.178;2022-12-24T05:34:47;1.73;;;1.40;;
39970;SDS011;35425;51.142;17.178;2022-12-24T05:37:13;1.55;;;1.20;;
39970;SDS011;35425;51.142;17.178;2022-12-24T05:39:40;1.38;;;1.27;;
39970;SDS011;35425;51.142;17.178;2022-12-24T05:42:06;1.33;;;1.00;;
39970;SDS011;35425;51.142;17.178;2022-12-24T05:44:33;1.50;;;1.10;;
39970;SDS011;35425;51.142;17.178;2022-12-24T05:46:59;1.40;;;1.27;;
39970;SDS011;35425;51.142;17.178;2022-12-24T05:49:26;1.25;;;1.00;;
39970;SDS011;35425;51.142;17.178;2022-12-24T05:51:52;1.25;;;1.10;;
39970;SDS011;35425;51.142;17.178;2022-12-24T05:54:19;1.15;;;0.90;;
39970;SDS011;35425;51.142;17.178;2022-12-24T05:56:45;1.25;;;1.00;;
39970;SDS011;35425;51.142;17.178;2022-12-24T05:59:11;1.10;;;0.90;;
39970;SDS011;35425;51.142;17.178;2022-12-24T06:01:38;1.73;;;1.05;;
39970;SDS011;35425;51.142;17.178;2022-12-24T06:04:05;0.80;;;0.80;;
39970;SDS011;35425;51.142;17.178;2022-12-24T06:06:31;0.98;;;0.88;;
39970;SDS011;35425;51.142;17.178;2022-12-24T06:08:58;1.40;;;1.05;;
39970;SDS011;35425;51.142;17.178;2022-12-24T06:11:25;1.20;;;0.80;;
39970;SDS011;35425;51.142;17.178;2022-12-24T06:13:52;1.67;;;0.90;;
39970;SDS011;35425;51.142;17.178;2022-12-24T06:16:19;1.05;;;0.80;;
39970;SDS011;35425;51.142;17.178;2022-12-24T06:18:46;0.70;;;0.65;;
39970;SDS011;35425;51.142;17.178;2022-12-24T06:21:12;1.00;;;0.90;;
39970;SDS011;35425;51.142;17.178;2022-12-24T06:23:40;1.02;;;0.90;;
39970;SDS011;35425;51.142;17.178;2022-12-24T06:26:07;1.42;;;0.93;;
39970;SDS011;35425;51.142;17.178;2022-12-24T06:28:35;1.00;;;0.80;;
39970;SDS011;35425;51.142;17.178;2022-12-24T06:31:02;0.80;;;0.70;;
39970;SDS011;35425;51.142;17.178;2022-12-24T06:33:29;0.70;;;0.70;;
39970;SDS011;35425;51.142;17.178;2022-12-24T06:35:56;1.05;;;0.80;;
39970;SDS011;35425;51.142;17.178;2022-12-24T06:38:22;0.68;;;0.65;;
39970;SDS011;35425;51.142;17.178;2022-12-24T06:40:49;1.05;;;0.57;;
39970;SDS011;35425;51.142;17.178;2022-12-24T06:43:15;1.08;;;0.80;;
39970;SDS011;35425;51.142;17.178;2022-12-24T06:45:45;1.00;;;0.80;;
39970;SDS011;35425;51.142;17.178;2022-12-24T06:48:12;0.98;;;0.55;;
39970;SDS011;35425;51.142;17.178;2022-12-24T06:50:39;0.88;;;0.82;;
39970;SDS011;35425;51.142;17.178;2022-12-24T06:53:06;0.90;;;0.60;;
39970;SDS011;35425;51.142;17.178;2022-12-24T06:55:32;0.70;;;0.60;;
39970;SDS011;35425;51.142;17.178;2022-12-24T06:57:58;0.80;;;0.70;;
39970;SDS011;35425;51.142;17.178;2022-12-24T07:00:25;0.65;;;0.65;;
39970;SDS011;35425;51.142;17.178;2022-12-24T07:02:51;0.80;;;0.60;;
39970;SDS011;35425;51.142;17.178;2022-12-24T07:05:18;0.80;;;0.70;;
39970;SDS011;35425;51.142;17.178;2022-12-24T07:07:44;0.75;;;0.70;;
39970;SDS011;35425;51.142;17.178;2022-12-24T07:10:14;0.60;;;0.60;;
39970;SDS011;35425;51.142;17.178;2022-12-24T07:12:41;1.27;;;0.60;;
39970;SDS011;35425;51.142;17.178;2022-12-24T07:15:08;0.60;;;0.43;;
39970;SDS011;35425;51.142;17.178;2022-12-24T07:17:35;1.30;;;0.70;;
39970;SDS011;35425;51.142;17.178;2022-12-24T07:20:01;0.88;;;0.63;;
39970;SDS011;35425;51.142;17.178;2022-12-24T07:22:28;0.88;;;0.70;;
39970;SDS011;35425;51.142;17.178;2022-12-24T07:24:54;0.50;;;0.32;;
39970;SDS011;35425;51.142;17.178;2022-12-24T07:27:21;0.55;;;0.50;;
39970;SDS011;35425;51.142;17.178;2022-12-24T07:29:47;0.63;;;0.50;;
39970;SDS011;35425;51.142;17.178;2022-12-24T07:32:13;0.68;;;0.55;;
39970;SDS011;35425;51.142;17.178;2022-12-24T07:34:40;0.85;;;0.55;;
39970;SDS011;35425;51.142;17.178;2022-12-24T07:37:07;0.50;;;0.50;;
39970;SDS011;35425;51.142;17.178;2022-12-24T07:39:33;0.73;;;0.50;;
39970;SDS011;35425;51.142;17.178;2022-12-24T07:42:00;0.63;;;0.40;;
39970;SDS011;35425;51.142;17.178;2022-12-24T07:44:26;0.50;;;0.40;;
39970;SDS011;35425;51.142;17.178;2022-12-24T07:46:53;0.80;;;0.43;;
39970;SDS011;35425;51.142;17.178;2022-12-24T07:49:19;0.63;;;0.50;;
39970;SDS011;35425;51.142;17.178;2022-12-24T07:51:46;0.50;;;0.50;;
39970;SDS011;35425;51.142;17.178;2022-12-24T07:54:12;0.80;;;0.57;;
39970;SDS011;35425;51.142;17.178;2022-12-24T07:56:39;1.00;;;0.50;;
39970;SDS011;35425;51.142;17.178;2022-12-24T07:59:05;0.75;;;0.60;;
39970;SDS011;35425;51.142;17.178;2022-12-24T08:01:31;0.60;;;0.50;;
39970;SDS011;35425;51.142;17.178;2022-12-24T08:03:58;0.70;;;0.60;;
39970;SDS011;35425;51.142;17.178;2022-12-24T08:06:25;0.68;;;0.50;;
39970;SDS011;35425;51.142;17.178;2022-12-24T08:08:51;0.50;;;0.50;;
39970;SDS011;35425;51.142;17.178;2022-12-24T08:11:17;0.60;;;0.55;;
39970;SDS011;35425;51.142;17.178;2022-12-24T08:13:44;0.68;;;0.60;;
39970;SDS011;35425;51.142;17.178;2022-12-24T08:16:10;0.47;;;0.47;;
39970;SDS011;35425;51.142;17.178;2022-12-24T08:18:37;0.63;;;0.60;;
39970;SDS011;35425;51.142;17.178;2022-12-24T08:21:06;0.65;;;0.55;;
39970;SDS011;35425;51.142;17.178;2022-12-24T08:23:32;0.60;;;0.60;;
39970;SDS011;35425;51.142;17.178;2022-12-24T08:25:59;0.60;;;0.60;;
39970;SDS011;35425;51.142;17.178;2022-12-24T08:28:25;0.68;;;0.63;;
39970;SDS011;35425;51.142;17.178;2022-12-24T08:30:52;0.50;;;0.50;;
39970;SDS011;35425;51.142;17.178;2022-12-24T08:33:18;1.02;;;0.60;;
39970;SDS011;35425;51.142;17.178;2022-12-24T08:35:50;0.65;;;0.65;;
39970;SDS011;35425;51.142;17.178;2022-12-24T08:38:17;0.70;;;0.60;;
39970;SDS011;35425;51.142;17.178;2022-12-24T08:40:44;1.40;;;0.70;;
39970;SDS011;35425;51.142;17.178;2022-12-24T08:43:12;0.70;;;0.60;;
39970;SDS011;35425;51.142;17.178;2022-12-24T08:45:38;0.80;;;0.50;;
39970;SDS011;35425;51.142;17.178;2022-12-24T08:48:07;0.70;;;0.70;;
39970;SDS011;35425;51.142;17.178;2022-12-24T08:50:34;0.80;;;0.70;;
39970;SDS011;35425;51.142;17.178;2022-12-24T08:53:00;1.08;;;0.80;;
39970;SDS011;35425;51.142;17.178;2022-12-24T08:55:27;0.82;;;0.60;;
39970;SDS011;35425;51.142;17.178;2022-12-24T08:57:53;1.40;;;0.88;;
39970;SDS011;35425;51.142;17.178;2022-12-24T09:00:20;1.00;;;0.60;;
39970;SDS011;35425;51.142;17.178;2022-12-24T09:02:46;0.90;;;0.90;;
39970;SDS011;35425;51.142;17.178;2022-12-24T09:05:13;1.13;;;0.70;;
39970;SDS011;35425;51.142;17.178;2022-12-24T09:07:39;1.38;;;0.80;;
39970;SDS011;35425;51.142;17.178;2022-12-24T09:10:06;0.90;;;0.70;;
39970;SDS011;35425;51.142;17.178;2022-12-24T09:12:32;1.48;;;0.88;;
39970;SDS011;35425;51.142;17.178;2022-12-24T09:14:59;1.23;;;0.93;;
39970;SDS011;35425;51.142;17.178;2022-12-24T09:17:29;1.00;;;0.90;;
39970;SDS011;35425;51.142;17.178;2022-12-24T09:19:55;1.38;;;1.20;;
39970;SDS011;35425;51.142;17.178;2022-12-24T09:22:22;0.80;;;0.80;;
39970;SDS011;35425;51.142;17.178;2022-12-24T09:24:48;1.45;;;1.05;;
39970;SDS011;35425;51.142;17.178;2022-12-24T09:27:15;1.95;;;1.27;;
39970;SDS011;35425;51.142;17.178;2022-12-24T09:29:41;1.27;;;0.88;;
39970;SDS011;35425;51.142;17.178;2022-12-24T09:32:08;0.93;;;0.80;;
39970;SDS011;35425;51.142;17.178;2022-12-24T09:34:35;1.42;;;1.00;;
39970;SDS011;35425;51.142;17.178;2022-12-24T09:37:01;0.80;;;0.80;;
39970;SDS011;35425;51.142;17.178;2022-12-24T09:39:28;1.25;;;1.15;;
39970;SDS011;35425;51.142;17.178;2022-12-24T09:44:45;1.00;;;0.88;;
39970;SDS011;35425;51.142;17.178;2022-12-24T09:49:51;0.70;;;0.70;;
39970;SDS011;35425;51.142;17.178;2022-12-24T09:52:26;1.23;;;1.08;;
39970;SDS011;35425;51.142;17.178;2022-12-24T09:55:11;1.25;;;1.00;;
39970;SDS011;35425;51.142;17.178;2022-12-24T09:57:40;1.25;;;1.10;;
39970;SDS011;35425;51.142;17.178;2022-12-24T10:00:18;0.90;;;0.80;;
39970;SDS011;35425;51.142;17.178;2022-12-24T10:02:46;1.85;;;1.33;;
39970;SDS011;35425;51.142;17.178;2022-12-24T10:05:13;1.75;;;1.20;;
39970;SDS011;35425;51.142;17.178;2022-12-24T10:07:47;0.90;;;0.88;;
39970;SDS011;35425;51.142;17.178;2022-12-24T10:10:30;1.20;;;1.10;;
39970;SDS011;35425;51.142;17.178;2022-12-24T10:15:32;1.15;;;1.05;;
39970;SDS011;35425;51.142;17.178;2022-12-24T10:20:46;1.40;;;1.30;;
39970;SDS011;35425;51.142;17.178;2022-12-24T10:23:18;0.80;;;0.80;;
39970;SDS011;35425;51.142;17.178;2022-12-24T10:28:22;1.40;;;1.30;;
39970;SDS011;35425;51.142;17.178;2022-12-24T10:30:53;1.40;;;1.30;;
39970;SDS011;35425;51.142;17.178;2022-12-24T10:33:34;1.55;;;1.20;;
39970;SDS011;35425;51.142;17.178;2022-12-24T10:36:03;1.67;;;1.33;;
39970;SDS011;35425;51.142;17.178;2022-12-24T10:38:37;1.33;;;1.23;;
39970;SDS011;35425;51.142;17.178;2022-12-24T10:41:04;1.30;;;1.20;;
39970;SDS011;35425;51.142;17.178;2022-12-24T10:43:32;1.35;;;1.25;;
39970;SDS011;35425;51.142;17.178;2022-12-24T10:46:00;1.50;;;1.40;;
39970;SDS011;35425;51.142;17.178;2022-12-24T10:48:33;1.50;;;1.40;;
39970;SDS011;35425;51.142;17.178;2022-12-24T10:51:02;1.67;;;1.20;;
39970;SDS011;35425;51.142;17.178;2022-12-24T10:53:42;1.55;;;1.45;;
39970;SDS011;35425;51.142;17.178;2022-12-24T10:56:10;1.58;;;1.48;;
39970;SDS011;35425;51.142;17.178;2022-12-24T10:58:41;1.25;;;1.15;;
39970;SDS011;35425;51.142;17.178;2022-12-24T11:01:08;1.55;;;1.45;;
39970;SDS011;35425;51.142;17.178;2022-12-24T11:03:35;1.45;;;1.35;;
39970;SDS011;35425;51.142;17.178;2022-12-24T11:08:36;1.45;;;1.35;;
39970;SDS011;35425;51.142;17.178;2022-12-24T11:11:07;1.25;;;1.13;;
39970;SDS011;35425;51.142;17.178;2022-12-24T11:13:38;1.42;;;1.33;;
39970;SDS011;35425;51.142;17.178;2022-12-24T11:16:14;1.58;;;1.48;;
39970;SDS011;35425;51.142;17.178;2022-12-24T11:18:44;1.17;;;1.08;;
39970;SDS011;35425;51.142;17.178;2022-12-24T11:21:20;1.23;;;1.13;;
39970;SDS011;35425;51.142;17.178;2022-12-24T11:23:49;1.38;;;1.27;;
39970;SDS011;35425;51.142;17.178;2022-12-24T11:26:29;1.25;;;1.13;;
39970;SDS011;35425;51.142;17.178;2022-12-24T11:31:33;1.20;;;1.10;;
39970;SDS011;35425;51.142;17.178;2022-12-24T11:36:44;1.33;;;1.10;;
39970;SDS011;35425;51.142;17.178;2022-12-24T11:39:17;1.27;;;1.17;;
39970;SDS011;35425;51.142;17.178;2022-12-24T11:41:44;1.17;;;1.08;;
39970;SDS011;35425;51.142;17.178;2022-12-24T11:44:11;1.63;;;1.00;;
39970;SDS011;35425;51.142;17.178;2022-12-24T11:46:39;1.27;;;1.17;;
39970;SDS011;35425;51.142;17.178;2022-12-24T11:49:13;0.90;;;0.90;;
39970;SDS011;35425;51.142;17.178;2022-12-24T11:51:45;1.02;;;0.93;;
39970;SDS011;35425;51.142;17.178;2022-12-24T11:54:28;1.35;;;1.20;;
39970;SDS011;35425;51.142;17.178;2022-12-24T11:56:56;1.23;;;1.13;;
39970;SDS011;35425;51.142;17.178;2022-12-24T12:02:27;1.42;;;1.30;;
39970;SDS011;35425;51.142;17.178;2022-12-24T12:04:58;1.60;;;1.10;;
39970;SDS011;35425;51.142;17.178;2022-12-24T12:07:35;1.15;;;1.05;;
39970;SDS011;35425;51.142;17.178;2022-12-24T12:12:30;1.67;;;1.15;;
39970;SDS011;35425;51.142;17.178;2022-12-24T12:14:59;1.05;;;0.98;;
39970;SDS011;35425;51.142;17.178;2022-12-24T12:17:47;1.30;;;1.20;;
39970;SDS011;35425;51.142;17.178;2022-12-24T12:20:18;1.00;;;0.90;;
39970;SDS011;35425;51.142;17.178;2022-12-24T12:22:57;1.17;;;1.02;;
39970;SDS011;35425;51.142;17.178;2022-12-24T12:27:57;1.02;;;0.93;;
39970;SDS011;35425;51.142;17.178;2022-12-24T12:30:25;0.98;;;0.95;;
39970;SDS011;35425;51.142;17.178;2022-12-24T12:37:55;2.30;;;1.30;;
39970;SDS011;35425;51.142;17.178;2022-12-24T12:40:27;1.50;;;1.40;;
39970;SDS011;35425;51.142;17.178;2022-12-24T12:43:01;2.00;;;1.40;;
39970;SDS011;35425;51.142;17.178;2022-12-24T12:50:51;1.40;;;1.30;;
39970;SDS011;35425;51.142;17.178;2022-12-24T12:58:37;1.47;;;1.33;;
39970;SDS011;35425;51.142;17.178;2022-12-24T13:01:48;1.55;;;1.30;;
39970;SDS011;35425;51.142;17.178;2022-12-24T13:19:36;2.50;;;1.40;;
39970;SDS011;35425;51.142;17.178;2022-12-24T13:22:12;1.63;;;1.20;;
39970;SDS011;35425;51.142;17.178;2022-12-24T13:24:42;1.48;;;1.10;;
39970;SDS011;35425;51.142;17.178;2022-12-24T13:27:18;2.33;;;1.60;;
39970;SDS011;35425;51.142;17.178;2022-12-24T13:29:59;1.65;;;1.30;;
39970;SDS011;35425;51.142;17.178;2022-12-24T13:37:49;1.40;;;1.27;;
39970;SDS011;35425;51.142;17.178;2022-12-24T13:40:21;1.77;;;1.40;;
39970;SDS011;35425;51.142;17.178;2022-12-24T13:42:49;1.77;;;1.45;;
39970;SDS011;35425;51.142;17.178;2022-12-24T13:47:55;1.90;;;1.35;;
39970;SDS011;35425;51.142;17.178;2022-12-24T13:50:23;1.85;;;1.58;;
39970;SDS011;35425;51.142;17.178;2022-12-24T13:52:50;1.80;;;1.33;;
39970;SDS011;35425;51.142;17.178;2022-12-24T13:55:17;1.60;;;1.30;;
39970;SDS011;35425;51.142;17.178;2022-12-24T14:02:50;2.42;;;1.42;;
39970;SDS011;35425;51.142;17.178;2022-12-24T14:05:20;1.65;;;1.42;;
39970;SDS011;35425;51.142;17.178;2022-12-24T14:07:50;2.72;;;1.60;;
39970;SDS011;35425;51.142;17.178;2022-12-24T14:10:24;2.00;;;1.52;;
39970;SDS011;35425;51.142;17.178;2022-12-24T14:12:51;2.25;;;1.35;;
39970;SDS011;35425;51.142;17.178;2022-12-24T14:18:03;2.63;;;1.55;;
39970;SDS011;35425;51.142;17.178;2022-12-24T14:20:30;2.83;;;1.58;;
39970;SDS011;35425;51.142;17.178;2022-12-24T14:22:57;2.08;;;1.50;;
39970;SDS011;35425;51.142;17.178;2022-12-24T14:25:24;2.13;;;1.40;;
39970;SDS011;35425;51.142;17.178;2022-12-24T14:27:53;2.88;;;1.50;;
39970;SDS011;35425;51.142;17.178;2022-12-24T14:30:21;1.90;;;1.50;;
39970;SDS011;35425;51.142;17.178;2022-12-24T14:32:48;3.45;;;1.95;;
39970;SDS011;35425;51.142;17.178;2022-12-24T14:35:17;1.80;;;1.40;;
39970;SDS011;35425;51.142;17.178;2022-12-24T14:37:46;1.80;;;1.40;;
39970;SDS011;35425;51.142;17.178;2022-12-24T14:40:20;2.22;;;1.38;;
39970;SDS011;35425;51.142;17.178;2022-12-24T14:42:50;2.65;;;1.65;;
39970;SDS011;35425;51.142;17.178;2022-12-24T14:45:23;2.22;;;1.40;;
39970;SDS011;35425;51.142;17.178;2022-12-24T14:47:58;3.78;;;1.70;;
39970;SDS011;35425;51.142;17.178;2022-12-24T14:50:39;2.38;;;1.73;;
39970;SDS011;35425;51.142;17.178;2022-12-24T14:55:45;1.70;;;1.48;;
39970;SDS011;35425;51.142;17.178;2022-12-24T14:58:19;2.28;;;1.55;;
39970;SDS011;35425;51.142;17.178;2022-12-24T15:00:46;2.92;;;1.73;;
39970;SDS011;35425;51.142;17.178;2022-12-24T15:03:14;2.78;;;1.50;;
39970;SDS011;35425;51.142;17.178;2022-12-24T15:05:41;3.22;;;1.70;;
39970;SDS011;35425;51.142;17.178;2022-12-24T15:08:27;3.33;;;1.83;;
39970;SDS011;35425;51.142;17.178;2022-12-24T15:10:58;3.35;;;1.70;;
39970;SDS011;35425;51.142;17.178;2022-12-24T15:16:02;3.17;;;1.80;;
39970;SDS011;35425;51.142;17.178;2022-12-24T15:18:31;2.60;;;1.90;;
39970;SDS011;35425;51.142;17.178;2022-12-24T15:21:00;2.30;;;1.50;;
39970;SDS011;35425;51.142;17.178;2022-12-24T15:23:34;2.55;;;1.50;;
39970;SDS011;35425;51.142;17.178;2022-12-24T15:26:05;3.40;;;1.80;;
39970;SDS011;35425;51.142;17.178;2022-12-24T15:28:36;3.33;;;1.50;;
39970;SDS011;35425;51.142;17.178;2022-12-24T15:31:19;2.80;;;1.80;;
39970;SDS011;35425;51.142;17.178;2022-12-24T15:33:46;2.38;;;1.58;;
39970;SDS011;35425;51.142;17.178;2022-12-24T15:36:14;2.20;;;1.30;;
39970;SDS011;35425;51.142;17.178;2022-12-24T15:38:42;2.50;;;1.63;;
39970;SDS011;35425;51.142;17.178;2022-12-24T15:41:15;2.38;;;1.52;;
39970;SDS011;35425;51.142;17.178;2022-12-24T15:43:43;2.63;;;1.40;;
39970;SDS011;35425;51.142;17.178;2022-12-24T15:46:16;2.15;;;1.40;;
39970;SDS011;35425;51.142;17.178;2022-12-24T15:48:43;2.15;;;1.48;;
39970;SDS011;35425;51.142;17.178;2022-12-24T15:51:10;2.30;;;1.50;;
39970;SDS011;35425;51.142;17.178;2022-12-24T15:53:40;2.70;;;1.50;;
39970;SDS011;35425;51.142;17.178;2022-12-24T15:56:10;2.42;;;1.50;;
39970;SDS011;35425;51.142;17.178;2022-12-24T15:58:38;3.45;;;1.60;;
39970;SDS011;35425;51.142;17.178;2022-12-24T16:03:36;2.72;;;1.77;;
39970;SDS011;35425;51.142;17.178;2022-12-24T16:06:03;2.63;;;1.63;;
39970;SDS011;35425;51.142;17.178;2022-12-24T16:08:32;2.95;;;1.33;;
39970;SDS011;35425;51.142;17.178;2022-12-24T16:13:32;2.25;;;1.50;;
39970;SDS011;35425;51.142;17.178;2022-12-24T16:16:07;2.50;;;1.50;;
39970;SDS011;35425;51.142;17.178;2022-12-24T16:18:35;2.30;;;1.67;;
39970;SDS011;35425;51.142;17.178;2022-12-24T16:21:03;2.40;;;1.60;;
39970;SDS011;35425;51.142;17.178;2022-12-24T16:23:36;2.10;;;1.63;;
39970;SDS011;35425;51.142;17.178;2022-12-24T16:26:03;3.38;;;1.85;;
39970;SDS011;35425;51.142;17.178;2022-12-24T16:28:30;1.73;;;1.30;;
39970;SDS011;35425;51.142;17.178;2022-12-24T16:30:56;2.65;;;1.83;;
39970;SDS011;35425;51.142;17.178;2022-12-24T16:33:23;2.53;;;1.77;;